Time;durP1;ratioP1;P1;durP2;ratioP2;P2;SDS_P1;SDS_P2;PMS_P1;PMS_P2;Temp;Humidity;BMP_temperature;BMP_pressure;BME280_temperature;BME280_humidity;BME280_pressure;Samples;Min_cycle;Max_cycle;Signal;HPM_P1;HPM_P2
2022/10/08 00:01:31;;;;;;;12.40;7.47;;;;;;;11.77;95.17;93053.91;5026076;28;20037;-79
2022/10/08 00:03:56;;;;;;;11.40;7.20;;;;;;;11.77;94.67;93053.13;5041921;28;20143;-78
2022/10/08 00:06:24;;;;;;;14.50;7.07;;;;;;;11.77;94.75;93053.13;5043549;28;20041;-78
2022/10/08 00:08:53;;;;;;;15.45;7.10;;;;;;;11.73;95.46;93058.16;5026369;28;20344;-79
2022/10/08 00:11:24;;;;;;;13.00;6.97;;;;;;;11.72;95.14;93047.94;5026776;28;20041;-79
2022/10/08 00:13:52;;;;;;;12.57;7.30;;;;;;;11.73;94.91;93039.81;5044217;28;20045;-79
2022/10/08 00:16:27;;;;;;;12.95;7.55;;;;;;;11.71;95.08;93038.50;5042668;28;20092;-79
2022/10/08 00:18:54;;;;;;;14.38;7.60;;;;;;;11.67;95.33;93031.19;5026819;28;20255;-79
2022/10/08 00:21:32;;;;;;;13.25;7.35;;;;;;;11.65;95.71;93032.53;5023623;28;20701;-79
2022/10/08 00:24:00;;;;;;;11.32;6.57;;;;;;;11.64;95.39;93029.16;5043123;28;20033;-78
2022/10/08 00:26:28;;;;;;;16.23;6.80;;;;;;;11.64;95.90;93033.59;5040795;28;20021;-78
2022/10/08 00:28:55;;;;;;;14.20;7.47;;;;;;;11.63;96.28;93030.19;5039870;28;20029;-80
2022/10/08 00:31:24;;;;;;;9.60;6.90;;;;;;;11.63;96.11;93026.78;5040342;28;20461;-79
2022/10/08 00:33:53;;;;;;;11.88;6.75;;;;;;;11.62;96.38;93028.63;5041387;28;20518;-79
2022/10/08 00:36:18;;;;;;;12.60;7.50;;;;;;;11.61;95.93;93023.66;5041819;28;20060;-78
2022/10/08 00:38:44;;;;;;;14.93;7.30;;;;;;;11.59;95.40;93016.06;5038638;28;20029;-79
2022/10/08 00:41:20;;;;;;;12.80;6.82;;;;;;;11.60;95.79;93019.50;5040693;28;20052;-78
2022/10/08 00:43:49;;;;;;;13.82;6.88;;;;;;;11.57;95.67;93015.59;5022946;28;20029;-79
2022/10/08 00:46:36;;;;;;;10.38;6.78;;;;;;;11.57;95.93;93015.59;5022302;28;20029;-78
2022/10/08 00:49:11;;;;;;;13.50;7.07;;;;;;;11.58;95.78;93019.00;5037956;28;20120;-79
2022/10/08 00:51:40;;;;;;;12.75;7.15;;;;;;;11.56;95.73;93016.63;5038440;28;20119;-78
2022/10/08 00:54:06;;;;;;;11.48;6.55;;;;;;;11.55;95.67;93015.09;5039075;28;20029;-79
2022/10/08 00:56:36;;;;;;;11.95;7.03;;;;;;;11.54;95.61;93012.72;5007879;28;20030;-79
2022/10/08 00:59:02;;;;;;;9.48;6.90;;;;;;;11.50;95.79;93011.72;5022091;28;20045;-79
2022/10/08 01:01:31;;;;;;;16.27;7.10;;;;;;;11.48;95.72;93008.59;5040365;28;20049;-79
2022/10/08 01:04:01;;;;;;;11.80;6.82;;;;;;;11.49;95.54;93004.94;5040941;28;20038;-79
2022/10/08 01:06:31;;;;;;;14.48;7.00;;;;;;;11.45;96.26;92997.59;5040069;28;20029;-79
2022/10/08 01:09:05;;;;;;;10.80;6.85;;;;;;;11.43;96.72;92997.09;5038663;28;20037;-79
2022/10/08 01:11:45;;;;;;;12.70;6.78;;;;;;;11.44;97.00;92996.06;5022249;28;20060;-79
2022/10/08 01:14:26;;;;;;;10.63;6.55;;;;;;;11.39;96.61;92990.88;5039865;28;20081;-79
2022/10/08 01:17:06;;;;;;;12.23;7.05;;;;;;;11.38;97.43;92988.53;5021858;28;20057;-78
2022/10/08 01:20:09;;;;;;;13.02;7.38;;;;;;;11.37;97.24;92981.69;5019282;28;20052;-79
2022/10/08 01:22:47;;;;;;;11.27;7.43;;;;;;;11.36;97.40;92983.53;5060698;28;20060;-79
2022/10/08 01:25:50;;;;;;;14.85;7.47;;;;;;;11.34;98.80;92983.03;5041669;28;20037;-78
2022/10/08 01:29:00;;;;;;;14.25;7.10;;;;;;;11.32;99.12;92977.28;5040493;28;20056;-79
2022/10/08 01:31:29;;;;;;;12.00;7.45;;;;;;;11.32;99.45;92979.13;5009889;28;20045;-79
2022/10/08 01:34:14;;;;;;;10.40;7.13;;;;;;;11.23;98.72;92961.41;5023850;28;20449;-79
2022/10/08 01:36:44;;;;;;;12.88;7.25;;;;;;;11.31;98.95;92972.34;5041259;28;20099;-79
2022/10/08 01:39:15;;;;;;;10.85;6.50;;;;;;;11.29;98.62;92970.00;5042431;28;20385;-79
2022/10/08 01:41:45;;;;;;;12.25;7.40;;;;;;;11.28;98.46;92962.41;5041842;28;20402;-79
2022/10/08 01:44:16;;;;;;;15.38;7.72;;;;;;;11.28;98.31;92957.16;5059116;28;20032;-79
2022/10/08 01:46:45;;;;;;;15.02;7.82;;;;;;;11.25;98.33;92948.78;5058892;28;20052;-79
2022/10/08 01:49:16;;;;;;;17.92;7.90;;;;;;;11.22;98.46;92944.13;5052089;28;20032;-80
2022/10/08 01:52:09;;;;;;;11.23;7.47;;;;;;;11.22;99.04;92951.22;5067399;28;20037;-79
2022/10/08 01:54:37;;;;;;;12.93;6.93;;;;;;;11.21;98.32;92953.06;5050173;28;20048;-80
2022/10/08 01:57:05;;;;;;;12.77;6.63;;;;;;;11.24;98.14;92947.25;5054900;28;20032;-80
2022/10/08 01:59:41;;;;;;;11.23;6.85;;;;;;;11.21;97.92;92944.38;5037663;28;20525;-77
2022/10/08 02:02:14;;;;;;;13.50;6.38;;;;;;;11.20;97.88;92943.63;5053814;28;20051;-80
2022/10/08 02:04:40;;;;;;;14.82;6.35;;;;;;;11.18;97.72;92939.72;5037874;28;20425;-79
2022/10/08 02:07:13;;;;;;;12.07;6.40;;;;;;;11.17;97.65;92943.41;5055320;28;20033;-80
2022/10/08 02:09:42;;;;;;;13.90;6.78;;;;;;;11.13;97.68;92939.78;5038860;28;20037;-80
2022/10/08 02:12:08;;;;;;;17.80;6.47;;;;;;;11.11;97.64;92937.44;5038417;28;20037;-79
2022/10/08 02:14:37;;;;;;;9.63;6.35;;;;;;;11.11;97.32;92937.44;5039258;28;20074;-79
2022/10/08 02:17:35;;;;;;;9.48;6.03;;;;;;;11.11;97.49;92931.41;5041501;28;20063;-79
2022/10/08 02:20:18;;;;;;;10.13;6.15;;;;;;;11.08;97.57;92932.75;5006690;28;20479;-80
2022/10/08 02:23:08;;;;;;;10.85;7.00;;;;;;;11.07;97.36;92935.63;5059739;28;20471;-79
2022/10/08 02:25:42;;;;;;;13.18;6.60;;;;;;;11.04;98.11;92924.66;5059770;28;20033;-79
2022/10/08 02:28:33;;;;;;;12.30;6.47;;;;;;;11.03;98.19;92925.72;5058663;28;20033;-79
2022/10/08 02:31:13;;;;;;;11.75;6.70;;;;;;;11.04;98.66;92923.88;5059726;28;20125;-79
2022/10/08 02:33:43;;;;;;;11.93;6.45;;;;;;;11.05;98.37;92922.81;5059993;28;20394;-79
2022/10/08 02:36:12;;;;;;;10.52;6.18;;;;;;;11.03;98.83;92920.50;5042611;28;20033;-79
2022/10/08 02:38:52;;;;;;;11.40;6.47;;;;;;;11.03;98.45;92915.25;5039528;28;20022;-79
2022/10/08 02:41:22;;;;;;;10.57;6.45;;;;;;;11.00;98.61;92910.53;5057052;28;20167;-79
2022/10/08 02:43:49;;;;;;;13.98;6.80;;;;;;;11.00;99.00;92905.31;5039563;28;20091;-79
2022/10/08 02:46:21;;;;;;;11.70;6.80;;;;;;;10.99;98.83;92914.22;5059031;28;20750;-79
2022/10/08 02:49:02;;;;;;;11.30;7.05;;;;;;;10.99;99.47;92913.47;5057367;28;20033;-79
2022/10/08 02:51:30;;;;;;;12.18;6.68;;;;;;;10.97;99.68;92905.88;5040073;28;20108;-79
2022/10/08 02:53:58;;;;;;;12.73;7.13;;;;;;;10.96;99.42;92912.16;5040073;28;20048;-79
2022/10/08 02:56:26;;;;;;;12.73;7.53;;;;;;;10.97;99.74;92910.34;5057713;28;20033;-79
2022/10/08 02:58:52;;;;;;;13.07;7.20;;;;;;;10.96;100.00;92912.16;5055593;28;20463;-79
2022/10/08 03:01:29;;;;;;;13.60;7.32;;;;;;;10.98;100.00;92915.28;5040875;28;20089;-79
2022/10/08 03:04:07;;;;;;;14.73;7.95;;;;;;;10.97;99.84;92911.09;5058073;28;20108;-79
2022/10/08 03:06:35;;;;;;;15.00;7.88;;;;;;;10.99;100.00;92911.63;5059037;28;20033;-79
2022/10/08 03:09:03;;;;;;;13.60;8.32;;;;;;;10.99;100.00;92909.00;5040507;28;20033;-80
2022/10/08 03:11:30;;;;;;;19.60;8.10;;;;;;;10.97;100.00;92908.50;5041070;28;20037;-79
2022/10/08 03:14:00;;;;;;;15.90;7.55;;;;;;;10.96;100.00;92917.38;5039701;28;20033;-79
2022/10/08 03:16:36;;;;;;;14.30;8.25;;;;;;;10.94;100.00;92919.53;5058078;28;20048;-79
2022/10/08 03:19:03;;;;;;;12.02;7.55;;;;;;;10.92;100.00;92913.78;5029375;28;20046;-79
2022/10/08 03:21:29;;;;;;;14.30;8.45;;;;;;;10.87;100.00;92900.72;5040063;28;20045;-79
2022/10/08 03:23:55;;;;;;;18.63;8.35;;;;;;;10.91;100.00;92912.22;5022098;28;20034;-79
2022/10/08 03:26:21;;;;;;;12.32;8.00;;;;;;;10.91;100.00;92912.22;5039005;28;20041;-79
2022/10/08 03:28:46;;;;;;;16.27;8.30;;;;;;;10.89;100.00;92909.09;5038126;28;20029;-79
2022/10/08 03:31:12;;;;;;;13.25;7.28;;;;;;;10.87;100.00;92911.19;5040144;28;20051;-79
2022/10/08 03:33:37;;;;;;;17.50;8.40;;;;;;;10.84;100.00;92904.69;4988954;28;20065;-78
2022/10/08 03:36:03;;;;;;;15.50;7.95;;;;;;;10.85;100.00;92913.31;5022070;28;20045;-79
2022/10/08 03:38:28;;;;;;;16.55;7.47;;;;;;;10.83;100.00;92904.97;5021636;28;20053;-79
2022/10/08 03:40:57;;;;;;;13.10;7.50;;;;;;;10.81;100.00;92910.47;5008109;28;20550;-79
2022/10/08 03:43:23;;;;;;;12.00;7.43;;;;;;;10.81;100.00;92912.31;5023929;28;20089;-78
2022/10/08 03:45:53;;;;;;;15.30;8.30;;;;;;;10.80;100.00;92913.38;5025138;28;20041;-79
2022/10/08 03:48:20;;;;;;;16.05;8.70;;;;;;;10.77;100.00;92912.09;4991646;28;20041;-78
2022/10/08 03:50:57;;;;;;;17.75;8.30;;;;;;;10.76;100.00;92909.72;5023621;28;20065;-78
2022/10/08 03:53:23;;;;;;;14.38;8.02;;;;;;;10.76;100.00;92920.19;5022937;28;20075;-79
2022/10/08 03:55:49;;;;;;;15.88;7.78;;;;;;;10.77;100.00;92916.53;5024170;28;20489;-79
2022/10/08 03:58:15;;;;;;;13.25;7.70;;;;;;;10.77;100.00;92922.56;5022439;28;20052;-79
2022/10/08 04:00:40;;;;;;;13.93;8.15;;;;;;;10.78;100.00;92915.47;5023953;28;20107;-79
2022/10/08 04:03:06;;;;;;;12.00;7.97;;;;;;;10.78;100.00;92918.09;5042537;28;20040;-79
2022/10/08 04:05:32;;;;;;;13.30;7.03;;;;;;;10.78;100.00;92920.72;5008277;28;20091;-79
2022/10/08 04:07:57;;;;;;;11.10;7.93;;;;;;;10.76;100.00;92925.44;5024134;28;20375;-79
2022/10/08 04:10:23;;;;;;;14.82;8.23;;;;;;;10.74;100.00;92917.06;5025914;28;20041;-79
2022/10/08 04:12:48;;;;;;;13.20;7.45;;;;;;;10.73;100.00;92912.91;5043792;28;20164;-79
2022/10/08 04:15:14;;;;;;;15.77;8.13;;;;;;;10.70;100.00;92909.00;5009948;28;20029;-79
2022/10/08 04:17:40;;;;;;;12.95;7.40;;;;;;;10.72;100.00;92913.97;5023772;28;20045;-79
2022/10/08 04:20:06;;;;;;;12.20;7.88;;;;;;;10.69;100.00;92910.06;5062012;28;20053;-78
2022/10/08 04:22:32;;;;;;;12.23;7.95;;;;;;;10.70;100.00;92910.84;5042712;28;20045;-79
2022/10/08 04:24:58;;;;;;;13.20;8.32;;;;;;;10.68;100.00;92916.34;5061538;28;20064;-79
2022/10/08 04:27:23;;;;;;;13.10;7.30;;;;;;;10.67;100.00;92925.25;5025729;28;20017;-78
2022/10/08 04:29:49;;;;;;;14.45;7.57;;;;;;;10.66;100.00;92915.06;5045264;28;20052;-78
2022/10/08 04:32:15;;;;;;;14.00;8.20;;;;;;;10.63;100.00;92914.56;5063104;28;20036;-78
2022/10/08 04:34:41;;;;;;;12.60;8.00;;;;;;;10.62;100.00;92907.75;5011914;28;20025;-79
2022/10/08 04:37:06;;;;;;;18.60;8.25;;;;;;;10.61;100.00;92897.56;5042271;28;20491;-79
2022/10/08 04:39:32;;;;;;;12.27;7.65;;;;;;;10.60;100.00;92915.13;5041522;28;20041;-79
2022/10/08 04:41:57;;;;;;;14.77;8.05;;;;;;;10.60;100.00;92907.28;5041628;28;20037;-79
2022/10/08 04:44:23;;;;;;;14.18;8.05;;;;;;;10.60;100.00;92907.28;5022500;28;20061;-79
2022/10/08 04:46:49;;;;;;;13.18;7.90;;;;;;;10.60;100.00;92896.00;5042328;28;20048;-79
2022/10/08 04:49:14;;;;;;;15.60;7.97;;;;;;;10.59;100.00;92902.31;5013564;28;20064;-79
2022/10/08 04:51:40;;;;;;;12.20;8.02;;;;;;;10.60;100.00;92896.81;5048620;28;20091;-79
2022/10/08 04:54:06;;;;;;;16.25;8.15;;;;;;;10.61;100.00;92897.56;4992193;28;20426;-80
2022/10/08 04:56:33;;;;;;;12.68;8.00;;;;;;;10.58;100.00;92893.69;5034735;28;20045;-79
2022/10/08 04:58:59;;;;;;;11.85;7.93;;;;;;;10.57;100.00;92884.25;5018692;28;20045;-80
2022/10/08 05:01:26;;;;;;;20.63;8.18;;;;;;;10.59;100.00;92891.84;5023238;28;20042;-80
2022/10/08 05:03:53;;;;;;;13.13;7.78;;;;;;;10.59;100.00;92889.22;5019467;28;20033;-80
2022/10/08 05:06:22;;;;;;;12.48;7.55;;;;;;;10.61;100.00;92889.72;5030489;28;20056;-77
2022/10/08 05:08:48;;;;;;;13.35;8.40;;;;;;;10.58;100.00;92885.03;5017540;28;20064;-80
2022/10/08 05:11:15;;;;;;;14.60;8.32;;;;;;;10.62;100.00;92884.19;5036887;28;20029;-80
2022/10/08 05:13:41;;;;;;;16.00;8.05;;;;;;;10.61;100.00;92887.88;5028641;28;20025;-80
2022/10/08 05:16:12;;;;;;;13.05;7.90;;;;;;;10.61;100.00;92885.25;5033203;28;20043;-80
2022/10/08 05:18:39;;;;;;;15.43;8.35;;;;;;;10.60;100.00;92886.34;5019801;28;20063;-80
2022/10/08 05:21:16;;;;;;;14.95;8.40;;;;;;;10.60;100.00;92891.56;5016018;28;20045;-79
2022/10/08 05:23:42;;;;;;;13.60;7.72;;;;;;;10.61;100.00;92890.50;5038641;28;20072;-80
2022/10/08 05:26:28;;;;;;;13.98;7.55;;;;;;;10.58;100.00;92888.44;5042388;28;20402;-80
2022/10/08 05:28:55;;;;;;;13.00;7.43;;;;;;;10.56;100.00;92874.84;5018093;28;20044;-80
2022/10/08 05:31:23;;;;;;;12.57;7.38;;;;;;;10.57;100.00;92884.25;5035515;28;20048;-80
2022/10/08 05:33:48;;;;;;;14.63;7.45;;;;;;;10.59;100.00;92883.97;4995993;28;20379;-79
2022/10/08 05:36:17;;;;;;;12.73;6.97;;;;;;;10.58;100.00;92877.97;5032083;28;20049;-80
2022/10/08 05:38:43;;;;;;;13.05;7.43;;;;;;;10.58;100.00;92877.97;5037156;28;20098;-80
2022/10/08 05:41:15;;;;;;;12.25;7.38;;;;;;;10.62;100.00;92878.97;5027813;28;20120;-79
2022/10/08 05:43:41;;;;;;;11.45;7.28;;;;;;;10.69;100.00;92881.25;5022191;28;20080;-79
2022/10/08 05:46:07;;;;;;;15.23;7.90;;;;;;;10.72;100.00;92887.78;5034848;28;20038;-80
2022/10/08 05:48:33;;;;;;;12.38;7.72;;;;;;;10.87;100.00;92890.25;5038998;28;20160;-80
2022/10/08 05:51:04;;;;;;;13.75;7.72;;;;;;;11.12;100.00;92891.03;5014284;28;20439;-79
2022/10/08 05:53:30;;;;;;;10.75;7.30;;;;;;;11.36;100.00;92891.81;5038785;28;20063;-80
2022/10/08 05:56:03;;;;;;;10.95;6.75;;;;;;;11.63;100.00;92895.69;5045440;28;20033;-79
2022/10/08 05:58:32;;;;;;;11.55;6.85;;;;;;;11.93;98.99;92905.00;5033887;28;20036;-79
2022/10/08 06:01:04;;;;;;;11.88;6.50;;;;;;;12.29;97.61;92894.78;5040484;28;20084;-79
2022/10/08 06:03:30;;;;;;;13.52;6.75;;;;;;;12.68;95.35;92893.63;5030204;28;20048;-80
2022/10/08 06:06:04;;;;;;;12.27;6.10;;;;;;;13.15;93.57;92898.06;5002205;28;20033;-78
2022/10/08 06:08:30;;;;;;;11.45;5.85;;;;;;;13.56;89.72;92890.22;5033945;28;20042;-78
2022/10/08 06:10:56;;;;;;;10.57;5.22;;;;;;;14.01;86.94;92889.56;5038334;28;20057;-79
2022/10/08 06:13:22;;;;;;;11.57;5.47;;;;;;;14.48;83.40;92890.06;5015440;28;20037;-79
2022/10/08 06:15:55;;;;;;;13.15;5.38;;;;;;;14.96;79.91;92881.53;5026518;28;20116;-80
2022/10/08 06:18:21;;;;;;;8.15;5.65;;;;;;;15.47;78.90;92880.16;5033882;28;20132;-80
2022/10/08 06:20:46;;;;;;;12.38;5.68;;;;;;;15.99;76.78;92888.19;5032800;28;20082;-80
2022/10/08 06:23:12;;;;;;;10.55;5.68;;;;;;;16.37;72.46;92882.31;5018402;28;20045;-79
2022/10/08 06:25:37;;;;;;;12.00;5.45;;;;;;;16.80;72.46;92889.44;5051650;28;20049;-80
2022/10/08 06:28:03;;;;;;;8.88;5.70;;;;;;;17.23;69.44;92877.94;5016703;28;20032;-80
2022/10/08 06:30:29;;;;;;;8.52;5.25;;;;;;;17.51;68.44;92884.66;5044657;28;20044;-80
2022/10/08 06:32:54;;;;;;;10.20;5.57;;;;;;;18.03;66.45;92889.69;5019024;28;20069;-77
2022/10/08 06:35:20;;;;;;;9.25;5.20;;;;;;;18.39;64.72;92883.81;5051274;28;20042;-79
2022/10/08 06:37:49;;;;;;;10.55;5.28;;;;;;;18.92;62.74;92884.91;5033732;28;20031;-81
2022/10/08 06:40:15;;;;;;;10.52;5.55;;;;;;;19.40;62.28;92890.63;5044828;28;20044;-80
2022/10/08 06:42:40;;;;;;;9.85;5.20;;;;;;;19.98;58.92;92885.22;5053699;28;20495;-83
2022/10/08 06:45:06;;;;;;;9.35;5.43;;;;;;;20.67;57.55;92893.22;5035935;28;20029;-80
2022/10/08 06:47:32;;;;;;;8.05;4.78;;;;;;;20.90;55.24;92888.94;5053442;28;20040;-80
2022/10/08 06:49:57;;;;;;;8.90;5.20;;;;;;;21.07;56.46;92889.72;5056972;28;20487;-82
2022/10/08 06:52:23;;;;;;;16.63;5.95;;;;;;;21.33;55.57;92895.34;5056253;28;20021;-78
2022/10/08 06:54:49;;;;;;;11.52;5.15;;;;;;;21.77;53.96;92892.63;5024130;28;20033;-78
2022/10/08 06:57:15;;;;;;;7.72;4.82;;;;;;;22.09;52.34;92895.22;5030585;28;20045;-78
2022/10/08 06:59:40;;;;;;;7.70;5.18;;;;;;;23.00;50.95;92894.03;5050712;28;20033;-78
2022/10/08 07:02:09;;;;;;;10.25;5.38;;;;;;;23.25;49.51;92888.34;5030853;28;20044;-78
2022/10/08 07:04:35;;;;;;;9.88;5.30;;;;;;;23.52;49.07;92893.75;5049006;28;20041;-78
2022/10/08 07:07:01;;;;;;;7.85;5.00;;;;;;;23.34;47.52;92896.13;5044712;28;20044;-78
2022/10/08 07:09:27;;;;;;;9.15;5.22;;;;;;;23.49;46.72;92903.28;5012377;28;20025;-78
2022/10/08 07:11:54;;;;;;;9.95;5.03;;;;;;;23.70;49.03;92892.16;5043689;28;20049;-80
2022/10/08 07:14:20;;;;;;;8.75;5.07;;;;;;;23.78;47.96;92893.06;5051093;28;20067;-77
2022/10/08 07:16:46;;;;;;;8.80;5.18;;;;;;;23.52;48.33;92893.75;5034685;28;20076;-78
2022/10/08 07:19:12;;;;;;;17.25;5.75;;;;;;;23.61;46.72;92892.38;5034938;28;20157;-78
2022/10/08 07:21:39;;;;;;;8.40;4.82;;;;;;;23.35;47.90;92892.31;5025785;28;20103;-78
2022/10/08 07:24:04;;;;;;;11.40;4.85;;;;;;;22.41;47.72;92903.16;5030043;28;20112;-78
2022/10/08 07:26:33;;;;;;;8.98;5.05;;;;;;;21.64;50.74;92899.16;5035191;28;20443;-78
2022/10/08 07:29:06;;;;;;;9.57;5.20;;;;;;;20.81;54.34;92904.28;5015846;28;20056;-78
2022/10/08 07:31:34;;;;;;;8.55;5.05;;;;;;;20.63;54.30;92905.69;5030605;28;20045;-77
2022/10/08 07:34:02;;;;;;;8.75;5.40;;;;;;;19.88;56.86;92901.59;5030542;28;20667;-78
2022/10/08 07:36:28;;;;;;;9.50;5.20;;;;;;;19.53;58.79;92907.34;5033044;28;20028;-77
2022/10/08 07:38:54;;;;;;;10.40;5.25;;;;;;;19.50;59.15;92908.78;5014842;28;20069;-78
2022/10/08 07:41:20;;;;;;;9.93;5.60;;;;;;;19.68;59.07;92904.03;5027999;28;20383;-78
2022/10/08 07:43:50;;;;;;;9.30;5.88;;;;;;;19.52;59.55;92905.78;5036611;28;20476;-79
2022/10/08 07:46:15;;;;;;;9.35;5.68;;;;;;;19.20;60.96;92910.81;5031876;28;20048;-79
2022/10/08 07:48:41;;;;;;;8.45;5.50;;;;;;;19.08;62.80;92916.13;4997035;28;20037;-78
2022/10/08 07:51:06;;;;;;;10.45;6.00;;;;;;;19.31;61.48;92922.56;5015243;28;20032;-78
2022/10/08 07:53:34;;;;;;;9.55;5.30;;;;;;;19.69;61.63;92920.75;5017169;28;20038;-78
2022/10/08 07:55:59;;;;;;;11.65;5.80;;;;;;;19.67;60.67;92918.41;5004673;28;20574;-78
2022/10/08 07:58:25;;;;;;;11.25;5.40;;;;;;;19.10;60.16;92919.22;5030278;28;20167;-78
2022/10/08 08:00:56;;;;;;;9.15;5.60;;;;;;;19.48;60.62;92918.94;5027622;28;20080;-79
2022/10/08 08:03:22;;;;;;;12.07;5.95;;;;;;;19.50;60.50;92918.63;5034059;28;20155;-78
2022/10/08 08:05:47;;;;;;;8.57;5.55;;;;;;;19.47;60.98;92924.59;5013083;28;20021;-78
2022/10/08 08:08:13;;;;;;;10.10;5.95;;;;;;;18.88;62.93;92923.78;5013563;28;20428;-79
2022/10/08 08:10:39;;;;;;;8.95;6.18;;;;;;;18.82;64.01;92927.75;5011309;28;20071;-78
2022/10/08 08:13:04;;;;;;;8.60;6.15;;;;;;;18.76;64.70;92925.63;5030743;28;20033;-78
2022/10/08 08:15:30;;;;;;;12.10;6.25;;;;;;;18.75;64.30;92932.00;4996996;28;20454;-79
2022/10/08 08:17:56;;;;;;;10.75;6.18;;;;;;;18.76;62.97;92929.03;5018430;28;20694;-80
2022/10/08 08:20:21;;;;;;;13.40;6.25;;;;;;;18.72;65.32;92931.56;5021796;28;20048;-77
2022/10/08 08:22:47;;;;;;;10.02;5.85;;;;;;;18.69;62.14;92936.75;5037784;28;20036;-78
2022/10/08 08:25:13;;;;;;;8.48;5.82;;;;;;;18.68;64.39;92932.53;5031488;28;20127;-77
2022/10/08 08:27:38;;;;;;;10.95;6.13;;;;;;;18.47;64.11;92935.22;5006702;28;20375;-78
2022/10/08 08:30:05;;;;;;;10.93;6.07;;;;;;;18.46;65.12;92931.78;5019187;28;20037;-77
2022/10/08 08:32:30;;;;;;;11.63;6.72;;;;;;;18.48;64.14;92934.09;5013334;28;20069;-77
2022/10/08 08:34:56;;;;;;;10.45;5.80;;;;;;;18.36;65.54;92926.09;5019873;28;20076;-76
2022/10/08 08:37:22;;;;;;;10.80;6.63;;;;;;;18.22;63.40;92932.41;5016640;28;20120;-78
2022/10/08 08:39:47;;;;;;;10.23;6.25;;;;;;;18.60;64.34;92933.38;5015245;28;20030;-77
2022/10/08 08:42:22;;;;;;;9.43;6.40;;;;;;;18.44;65.13;92933.97;5030133;28;20509;-79
2022/10/08 08:44:58;;;;;;;10.82;5.63;;;;;;;18.40;62.88;92933.06;5033435;28;20045;-77
2022/10/08 08:47:26;;;;;;;10.50;6.25;;;;;;;18.34;64.67;92929.06;5033699;28;20033;-77
2022/10/08 08:50:22;;;;;;;12.55;6.22;;;;;;;18.31;64.11;92937.66;5038487;28;20068;-78
2022/10/08 08:52:47;;;;;;;12.75;5.90;;;;;;;18.47;66.23;92924.59;5024374;28;20075;-76
2022/10/08 08:55:19;;;;;;;9.75;5.95;;;;;;;18.33;64.88;92935.47;5001362;28;20044;-75
2022/10/08 08:58:05;;;;;;;10.93;6.10;;;;;;;18.49;65.55;92933.78;5032579;28;20116;-75
2022/10/08 09:00:38;;;;;;;8.50;5.45;;;;;;;18.54;64.68;92932.81;5046640;28;20036;-76
2022/10/08 09:03:20;;;;;;;11.50;5.53;;;;;;;18.60;64.49;92928.06;5039891;28;20086;-76
2022/10/08 09:05:50;;;;;;;9.52;5.63;;;;;;;18.62;62.87;92924.00;5013414;28;20033;-75
2022/10/08 09:08:38;;;;;;;9.93;6.45;;;;;;;18.45;64.51;92929.44;5031274;28;20038;-74
2022/10/08 09:11:05;;;;;;;11.60;5.72;;;;;;;18.40;65.29;92924.34;5031401;28;20387;-75
2022/10/08 09:13:46;;;;;;;9.73;6.05;;;;;;;18.83;62.06;92923.22;5049679;28;20410;-75
2022/10/08 09:16:14;;;;;;;13.07;5.50;;;;;;;18.99;62.38;92926.06;5045723;28;20057;-75
2022/10/08 09:18:43;;;;;;;12.18;5.28;;;;;;;18.96;60.29;92919.53;5010439;28;21470;-76
2022/10/08 09:21:09;;;;;;;12.45;5.93;;;;;;;19.05;61.55;92922.06;5027831;28;20044;-75
2022/10/08 09:23:35;;;;;;;11.27;5.45;;;;;;;19.08;62.32;92921.44;5012430;28;20041;-75
2022/10/08 09:26:16;;;;;;;13.73;6.22;;;;;;;18.89;62.79;92920.06;5012060;28;20403;-75
2022/10/08 09:28:53;;;;;;;9.43;5.90;;;;;;;18.80;63.21;92924.66;5025103;28;20499;-74
2022/10/08 09:31:31;;;;;;;10.55;6.18;;;;;;;18.98;62.02;92916.53;5028336;28;20487;-74
2022/10/08 09:34:14;;;;;;;10.55;5.30;;;;;;;19.08;62.33;92916.13;5029198;28;20048;-74
2022/10/08 09:37:05;;;;;;;9.30;5.78;;;;;;;18.86;61.75;92918.03;5028253;28;20045;-74
2022/10/08 09:39:33;;;;;;;12.30;5.85;;;;;;;18.55;62.55;92918.44;5011169;28;20034;-75
2022/10/08 09:42:17;;;;;;;11.45;5.65;;;;;;;18.88;62.53;92915.06;5029965;28;20072;-74
2022/10/08 09:44:55;;;;;;;9.68;5.45;;;;;;;18.94;60.47;92913.78;5037486;28;20084;-74
2022/10/08 09:47:23;;;;;;;8.43;5.20;;;;;;;19.08;62.19;92918.78;5017161;28;20041;-74
2022/10/08 09:50:06;;;;;;;9.70;5.72;;;;;;;19.33;60.76;92917.72;5000676;28;20173;-74
2022/10/08 09:52:35;;;;;;;8.00;5.55;;;;;;;19.58;59.07;92916.97;5028045;28;20030;-74
2022/10/08 09:55:30;;;;;;;9.05;5.63;;;;;;;19.82;58.88;92913.56;5029081;28;20927;-74
2022/10/08 09:58:02;;;;;;;8.32;5.63;;;;;;;19.86;57.71;92919.75;5026402;28;20519;-76
2022/10/08 10:00:37;;;;;;;9.10;5.47;;;;;;;19.54;60.75;92919.50;5020594;28;20038;-75
2022/10/08 10:03:05;;;;;;;9.40;5.53;;;;;;;19.59;60.35;92919.31;5014915;28;20525;-75
2022/10/08 10:05:33;;;;;;;9.00;5.55;;;;;;;19.70;57.02;92912.47;5008894;28;20473;-75
2022/10/08 10:07:59;;;;;;;9.15;5.55;;;;;;;19.46;58.94;92915.09;5009997;28;20491;-76
2022/10/08 10:10:27;;;;;;;10.63;5.97;;;;;;;19.57;59.92;92916.19;5007135;28;20040;-77
2022/10/08 10:13:16;;;;;;;9.85;5.88;;;;;;;19.67;57.50;92913.09;5008631;28;20125;-76
2022/10/08 10:16:12;;;;;;;9.48;5.20;;;;;;;19.53;60.00;92908.09;5030003;28;20056;-76
2022/10/08 10:18:53;;;;;;;9.18;5.93;;;;;;;19.51;56.77;92910.31;5034870;28;20052;-76
2022/10/08 10:21:31;;;;;;;10.40;6.10;;;;;;;19.76;57.67;92905.81;5028948;28;20052;-76
2022/10/08 10:24:11;;;;;;;8.18;5.32;;;;;;;19.87;57.48;92908.78;5040169;28;20426;-77
2022/10/08 10:26:41;;;;;;;10.40;6.28;;;;;;;19.67;58.77;92907.00;5026402;28;20060;-77
2022/10/08 10:29:14;;;;;;;10.98;6.38;;;;;;;19.68;58.98;92904.03;5040066;28;20037;-77
2022/10/08 10:31:53;;;;;;;9.52;6.32;;;;;;;19.70;59.24;92899.19;5029376;28;20048;-77
2022/10/08 10:34:32;;;;;;;10.98;6.57;;;;;;;19.85;59.37;92904.94;5017933;28;20136;-74
2022/10/08 10:37:06;;;;;;;8.02;5.63;;;;;;;20.19;58.88;92903.66;5026903;28;20048;-73
2022/10/08 10:39:45;;;;;;;10.43;6.18;;;;;;;20.32;58.73;92904.41;5015633;28;20049;-74
2022/10/08 10:42:20;;;;;;;8.85;5.38;;;;;;;20.19;58.60;92901.00;5027807;28;20560;-73
2022/10/08 10:44:56;;;;;;;10.88;6.40;;;;;;;19.82;58.90;92897.63;5027951;28;20060;-75
2022/10/08 10:47:32;;;;;;;10.02;6.70;;;;;;;19.86;59.39;92896.63;5031491;28;20052;-75
2022/10/08 10:50:00;;;;;;;9.65;5.90;;;;;;;19.95;58.81;92891.97;4990286;28;20411;-75
2022/10/08 10:52:47;;;;;;;10.93;6.00;;;;;;;19.95;59.69;92880.56;5028517;28;20064;-75
2022/10/08 10:55:38;;;;;;;9.48;6.28;;;;;;;20.05;60.62;92887.31;5038189;28;20026;-76
2022/10/08 10:58:55;;;;;;;9.25;6.00;;;;;;;19.20;61.34;92880.88;5013296;28;20037;-74
2022/10/08 11:01:52;;;;;;;9.32;5.90;;;;;;;19.28;62.13;92875.47;4913314;29;20036;-76
2022/10/08 11:04:29;;;;;;;10.57;6.20;;;;;;;19.32;61.90;92879.00;4933097;29;20043;-75
2022/10/08 11:07:05;;;;;;;10.82;6.40;;;;;;;19.07;61.41;92874.75;5017066;28;20507;-74
2022/10/08 11:09:49;;;;;;;12.77;6.40;;;;;;;19.33;60.18;92869.94;5015532;28;20474;-74
2022/10/08 11:12:56;;;;;;;10.82;7.00;;;;;;;19.12;61.86;92869.25;5039568;28;20033;-74
2022/10/08 11:15:35;;;;;;;9.50;6.32;;;;;;;19.01;61.55;92865.47;5050966;28;20033;-74
2022/10/08 11:18:18;;;;;;;10.57;6.20;;;;;;;19.29;59.87;92861.06;5030039;28;20044;-74
2022/10/08 11:21:11;;;;;;;11.40;6.80;;;;;;;19.26;60.66;92858.31;5051387;28;20093;-74
2022/10/08 11:23:54;;;;;;;15.85;6.95;;;;;;;19.16;61.39;92864.81;5053827;28;20041;-74
2022/10/08 11:26:46;;;;;;;12.00;7.70;;;;;;;19.03;61.31;92868.59;5038225;28;20532;-75
2022/10/08 11:29:37;;;;;;;11.27;7.70;;;;;;;19.25;60.88;92864.72;5046617;28;20086;-75
2022/10/08 11:32:10;;;;;;;12.25;8.07;;;;;;;19.41;61.48;92860.34;5013477;28;20109;-74
2022/10/08 11:34:36;;;;;;;10.82;7.45;;;;;;;19.58;60.57;92859.31;5027503;28;20480;-75
2022/10/08 11:37:30;;;;;;;11.27;6.57;;;;;;;19.32;60.90;92863.09;5017060;28;20034;-74
2022/10/08 11:40:25;;;;;;;12.85;6.90;;;;;;;19.46;59.60;92854.03;5012517;28;20144;-74
2022/10/08 11:43:21;;;;;;;11.00;7.47;;;;;;;19.27;61.82;92846.59;5013233;28;20125;-74
2022/10/08 11:45:48;;;;;;;11.77;7.45;;;;;;;19.13;62.05;92850.34;5012134;28;20033;-74